sensor_id;sensor_type;location;lat;lon;timestamp;temperature;humidity
13598;DHT22;38563;54.258;12.574;2022-12-18T00:00:08;-8.00;99.90
13598;DHT22;38563;54.258;12.574;2022-12-18T00:02:43;-8.10;99.90
13598;DHT22;38563;54.258;12.574;2022-12-18T00:05:09;-8.10;99.90
13598;DHT22;38563;54.258;12.574;2022-12-18T00:07:36;-8.10;99.90
13598;DHT22;38563;54.258;12.574;2022-12-18T00:10:04;-8.20;99.90
13598;DHT22;38563;54.258;12.574;2022-12-18T00:12:31;-8.20;99.90
13598;DHT22;38563;54.258;12.574;2022-12-18T00:14:57;-8.30;99.90
13598;DHT22;38563;54.258;12.574;2022-12-18T00:17:25;-8.30;99.90
13598;DHT22;38563;54.258;12.574;2022-12-18T00:19:52;-8.30;99.90
13598;DHT22;38563;54.258;12.574;2022-12-18T00:22:19;-8.40;99.90
13598;DHT22;38563;54.258;12.574;2022-12-18T00:24:45;-8.40;99.90
13598;DHT22;38563;54.258;12.574;2022-12-18T00:27:12;-8.40;99.90
13598;DHT22;38563;54.258;12.574;2022-12-18T00:29:39;-8.40;99.90
13598;DHT22;38563;54.258;12.574;2022-12-18T00:32:05;-8.40;99.90
13598;DHT22;38563;54.258;12.574;2022-12-18T00:34:33;-8.30;99.90
13598;DHT22;38563;54.258;12.574;2022-12-18T00:37:00;-8.20;99.90
13598;DHT22;38563;54.258;12.574;2022-12-18T00:39:27;-8.20;99.90
13598;DHT22;38563;54.258;12.574;2022-12-18T00:41:53;-8.30;99.90
13598;DHT22;38563;54.258;12.574;2022-12-18T00:44:38;-8.30;99.90
13598;DHT22;38563;54.258;12.574;2022-12-18T00:47:04;-8.30;99.90
13598;DHT22;38563;54.258;12.574;2022-12-18T00:49:31;-8.30;99.90
13598;DHT22;38563;54.258;12.574;2022-12-18T00:51:59;-8.20;99.90
13598;DHT22;38563;54.258;12.574;2022-12-18T00:54:26;-8.20;99.90
13598;DHT22;38563;54.258;12.574;2022-12-18T00:56:52;-8.20;99.90
13598;DHT22;38563;54.258;12.574;2022-12-18T00:59:20;-8.30;99.90
13598;DHT22;38563;54.258;12.574;2022-12-18T01:01:47;-8.30;99.90
13598;DHT22;38563;54.258;12.574;2022-12-18T01:04:14;-8.30;99.90
13598;DHT22;38563;54.258;12.574;2022-12-18T01:06:44;-8.30;99.90
13598;DHT22;38563;54.258;12.574;2022-12-18T01:09:12;-8.30;99.90
13598;DHT22;38563;54.258;12.574;2022-12-18T01:11:39;-8.30;99.90
13598;DHT22;38563;54.258;12.574;2022-12-18T01:14:06;-8.30;99.90
13598;DHT22;38563;54.258;12.574;2022-12-18T01:16:32;-8.30;99.90
13598;DHT22;38563;54.258;12.574;2022-12-18T01:18:59;-8.30;99.90
13598;DHT22;38563;54.258;12.574;2022-12-18T01:21:26;-8.30;99.90
13598;DHT22;38563;54.258;12.574;2022-12-18T01:23:54;-8.30;99.90
13598;DHT22;38563;54.258;12.574;2022-12-18T01:26:24;-8.40;99.90
13598;DHT22;38563;54.258;12.574;2022-12-18T01:28:54;-8.40;99.90
13598;DHT22;38563;54.258;12.574;2022-12-18T01:31:24;-8.40;99.90
13598;DHT22;38563;54.258;12.574;2022-12-18T01:33:52;-8.50;99.90
13598;DHT22;38563;54.258;12.574;2022-12-18T01:36:21;-8.50;99.90
13598;DHT22;38563;54.258;12.574;2022-12-18T01:38:49;-8.60;99.90
13598;DHT22;38563;54.258;12.574;2022-12-18T01:41:17;-8.60;99.90
13598;DHT22;38563;54.258;12.574;2022-12-18T01:43:48;-8.60;99.90
13598;DHT22;38563;54.258;12.574;2022-12-18T01:46:16;-8.50;99.90
13598;DHT22;38563;54.258;12.574;2022-12-18T01:48:43;-8.50;99.90
13598;DHT22;38563;54.258;12.574;2022-12-18T01:51:11;-8.40;99.90
13598;DHT22;38563;54.258;12.574;2022-12-18T01:53:42;-8.30;99.90
13598;DHT22;38563;54.258;12.574;2022-12-18T01:56:13;-8.20;99.90
13598;DHT22;38563;54.258;12.574;2022-12-18T01:58:48;-8.30;99.90
13598;DHT22;38563;54.258;12.574;2022-12-18T02:01:17;-8.30;99.90
13598;DHT22;38563;54.258;12.574;2022-12-18T02:03:44;-8.30;99.90
13598;DHT22;38563;54.258;12.574;2022-12-18T02:06:16;-8.40;99.90
13598;DHT22;38563;54.258;12.574;2022-12-18T02:09:02;-8.50;99.90
13598;DHT22;38563;54.258;12.574;2022-12-18T02:11:40;-8.70;99.90
13598;DHT22;38563;54.258;12.574;2022-12-18T02:14:18;-8.70;99.90
13598;DHT22;38563;54.258;12.574;2022-12-18T02:16:52;-8.70;99.90
13598;DHT22;38563;54.258;12.574;2022-12-18T02:19:40;-8.70;99.90
13598;DHT22;38563;54.258;12.574;2022-12-18T02:22:20;-8.70;99.90
13598;DHT22;38563;54.258;12.574;2022-12-18T02:25:00;-8.80;99.90
13598;DHT22;38563;54.258;12.574;2022-12-18T02:27:34;-8.90;99.90
13598;DHT22;38563;54.258;12.574;2022-12-18T02:30:04;-9.20;99.90
13598;DHT22;38563;54.258;12.574;2022-12-18T02:32:34;-9.30;99.90
13598;DHT22;38563;54.258;12.574;2022-12-18T02:35:05;-9.40;99.90
13598;DHT22;38563;54.258;12.574;2022-12-18T02:37:34;-9.40;99.90
13598;DHT22;38563;54.258;12.574;2022-12-18T02:40:06;-9.50;99.90
13598;DHT22;38563;54.258;12.574;2022-12-18T02:42:37;-9.50;99.90
13598;DHT22;38563;54.258;12.574;2022-12-18T02:45:07;-9.40;99.90
13598;DHT22;38563;54.258;12.574;2022-12-18T02:47:37;-9.40;99.90
13598;DHT22;38563;54.258;12.574;2022-12-18T02:50:11;-9.50;99.90
13598;DHT22;38563;54.258;12.574;2022-12-18T02:52:49;-9.50;99.90
13598;DHT22;38563;54.258;12.574;2022-12-18T02:55:28;-9.50;99.90
13598;DHT22;38563;54.258;12.574;2022-12-18T02:58:11;-9.50;99.90
13598;DHT22;38563;54.258;12.574;2022-12-18T03:00:43;-9.50;99.90
13598;DHT22;38563;54.258;12.574;2022-12-18T03:03:15;-9.50;99.90
13598;DHT22;38563;54.258;12.574;2022-12-18T03:05:45;-9.60;99.90
13598;DHT22;38563;54.258;12.574;2022-12-18T03:08:18;-9.60;99.90
13598;DHT22;38563;54.258;12.574;2022-12-18T03:10:51;-9.60;99.90
13598;DHT22;38563;54.258;12.574;2022-12-18T03:13:26;-9.60;99.90
13598;DHT22;38563;54.258;12.574;2022-12-18T03:15:55;-9.60;99.90
13598;DHT22;38563;54.258;12.574;2022-12-18T03:18:25;-9.60;99.90
13598;DHT22;38563;54.258;12.574;2022-12-18T03:20:53;-9.60;99.90
13598;DHT22;38563;54.258;12.574;2022-12-18T03:23:25;-9.60;99.90
13598;DHT22;38563;54.258;12.574;2022-12-18T03:25:56;-9.60;99.90
13598;DHT22;38563;54.258;12.574;2022-12-18T03:28:28;-9.60;99.90
13598;DHT22;38563;54.258;12.574;2022-12-18T03:31:00;-9.60;99.90
13598;DHT22;38563;54.258;12.574;2022-12-18T03:33:32;-9.50;99.90
13598;DHT22;38563;54.258;12.574;2022-12-18T03:36:01;-9.40;99.90
13598;DHT22;38563;54.258;12.574;2022-12-18T03:38:29;-9.40;99.90
13598;DHT22;38563;54.258;12.574;2022-12-18T03:41:03;-9.50;99.90
13598;DHT22;38563;54.258;12.574;2022-12-18T03:43:47;-9.60;99.90
13598;DHT22;38563;54.258;12.574;2022-12-18T03:46:20;-9.60;99.90
13598;DHT22;38563;54.258;12.574;2022-12-18T03:48:54;-9.60;99.90
13598;DHT22;38563;54.258;12.574;2022-12-18T03:51:28;-9.60;99.90
13598;DHT22;38563;54.258;12.574;2022-12-18T03:54:02;-9.40;99.90
13598;DHT22;38563;54.258;12.574;2022-12-18T03:56:38;-9.40;99.90
13598;DHT22;38563;54.258;12.574;2022-12-18T03:59:10;-9.30;99.90
13598;DHT22;38563;54.258;12.574;2022-12-18T04:01:41;-9.30;99.90
13598;DHT22;38563;54.258;12.574;2022-12-18T04:04:12;-9.30;99.90
13598;DHT22;38563;54.258;12.574;2022-12-18T04:06:41;-9.20;99.90
13598;DHT22;38563;54.258;12.574;2022-12-18T04:09:10;-9.20;99.90
13598;DHT22;38563;54.258;12.574;2022-12-18T04:11:42;-9.20;99.90
13598;DHT22;38563;54.258;12.574;2022-12-18T04:14:12;-9.20;99.90
13598;DHT22;38563;54.258;12.574;2022-12-18T04:16:38;-9.30;99.90
13598;DHT22;38563;54.258;12.574;2022-12-18T04:19:08;-9.30;99.90
13598;DHT22;38563;54.258;12.574;2022-12-18T04:21:39;-9.30;99.90
13598;DHT22;38563;54.258;12.574;2022-12-18T04:24:06;-9.40;99.90
13598;DHT22;38563;54.258;12.574;2022-12-18T04:26:36;-9.30;99.90
13598;DHT22;38563;54.258;12.574;2022-12-18T04:29:22;-9.30;99.90
13598;DHT22;38563;54.258;12.574;2022-12-18T04:31:49;-9.30;99.90
13598;DHT22;38563;54.258;12.574;2022-12-18T04:34:16;-9.20;99.90
13598;DHT22;38563;54.258;12.574;2022-12-18T04:36:48;-9.20;99.90
13598;DHT22;38563;54.258;12.574;2022-12-18T04:39:16;-9.20;99.90
13598;DHT22;38563;54.258;12.574;2022-12-18T04:41:43;-9.20;99.90
13598;DHT22;38563;54.258;12.574;2022-12-18T04:44:12;-9.10;99.90
13598;DHT22;38563;54.258;12.574;2022-12-18T04:46:40;-9.20;99.90
13598;DHT22;38563;54.258;12.574;2022-12-18T04:49:06;-9.30;99.90
13598;DHT22;38563;54.258;12.574;2022-12-18T04:51:33;-9.40;99.90
13598;DHT22;38563;54.258;12.574;2022-12-18T04:54:00;-9.40;99.90
13598;DHT22;38563;54.258;12.574;2022-12-18T04:56:27;-9.40;99.90
13598;DHT22;38563;54.258;12.574;2022-12-18T04:58:54;-9.40;99.90
13598;DHT22;38563;54.258;12.574;2022-12-18T05:01:20;-9.40;99.90
13598;DHT22;38563;54.258;12.574;2022-12-18T05:03:48;-9.40;99.90
13598;DHT22;38563;54.258;12.574;2022-12-18T05:06:15;-9.40;99.90
13598;DHT22;38563;54.258;12.574;2022-12-18T05:08:42;-9.30;99.90
13598;DHT22;38563;54.258;12.574;2022-12-18T05:11:10;-9.20;99.90
13598;DHT22;38563;54.258;12.574;2022-12-18T05:13:38;-9.20;99.90
13598;DHT22;38563;54.258;12.574;2022-12-18T05:16:05;-9.20;99.90
13598;DHT22;38563;54.258;12.574;2022-12-18T05:18:32;-9.20;99.90
13598;DHT22;38563;54.258;12.574;2022-12-18T05:21:00;-9.20;99.90
13598;DHT22;38563;54.258;12.574;2022-12-18T05:23:27;-9.20;99.90
13598;DHT22;38563;54.258;12.574;2022-12-18T05:25:56;-9.10;99.90
13598;DHT22;38563;54.258;12.574;2022-12-18T05:28:25;-9.00;99.90
13598;DHT22;38563;54.258;12.574;2022-12-18T05:30:53;-8.90;99.90
13598;DHT22;38563;54.258;12.574;2022-12-18T05:33:22;-9.00;99.90
13598;DHT22;38563;54.258;12.574;2022-12-18T05:35:50;-9.00;99.90
13598;DHT22;38563;54.258;12.574;2022-12-18T05:38:19;-8.90;99.90
13598;DHT22;38563;54.258;12.574;2022-12-18T05:40:47;-8.90;99.90
13598;DHT22;38563;54.258;12.574;2022-12-18T05:43:14;-8.90;99.90
13598;DHT22;38563;54.258;12.574;2022-12-18T05:45:41;-8.80;99.90
13598;DHT22;38563;54.258;12.574;2022-12-18T05:48:09;-8.80;99.90
13598;DHT22;38563;54.258;12.574;2022-12-18T05:50:37;-8.90;99.90
13598;DHT22;38563;54.258;12.574;2022-12-18T05:53:04;-8.90;99.90
13598;DHT22;38563;54.258;12.574;2022-12-18T05:55:34;-8.90;99.90
13598;DHT22;38563;54.258;12.574;2022-12-18T05:58:02;-8.90;99.90
13598;DHT22;38563;54.258;12.574;2022-12-18T06:00:29;-8.80;99.90
13598;DHT22;38563;54.258;12.574;2022-12-18T06:02:57;-8.80;99.90
13598;DHT22;38563;54.258;12.574;2022-12-18T06:05:24;-8.80;99.90
13598;DHT22;38563;54.258;12.574;2022-12-18T06:07:51;-8.80;99.90
13598;DHT22;38563;54.258;12.574;2022-12-18T06:10:17;-8.80;99.90
13598;DHT22;38563;54.258;12.574;2022-12-18T06:12:46;-8.80;99.90
13598;DHT22;38563;54.258;12.574;2022-12-18T06:15:12;-8.70;99.90
13598;DHT22;38563;54.258;12.574;2022-12-18T06:17:39;-8.70;99.90
13598;DHT22;38563;54.258;12.574;2022-12-18T06:20:06;-8.70;99.90
13598;DHT22;38563;54.258;12.574;2022-12-18T06:22:33;-8.60;99.90
13598;DHT22;38563;54.258;12.574;2022-12-18T06:25:01;-8.50;99.90
13598;DHT22;38563;54.258;12.574;2022-12-18T06:27:28;-8.40;99.90
13598;DHT22;38563;54.258;12.574;2022-12-18T06:29:56;-8.40;99.90
13598;DHT22;38563;54.258;12.574;2022-12-18T06:32:22;-8.40;99.90
13598;DHT22;38563;54.258;12.574;2022-12-18T06:34:49;-8.50;99.90
13598;DHT22;38563;54.258;12.574;2022-12-18T06:37:16;-8.50;99.90
13598;DHT22;38563;54.258;12.574;2022-12-18T06:39:42;-8.50;99.90
13598;DHT22;38563;54.258;12.574;2022-12-18T06:42:09;-8.60;99.90
13598;DHT22;38563;54.258;12.574;2022-12-18T06:44:36;-8.60;99.90
13598;DHT22;38563;54.258;12.574;2022-12-18T06:47:04;-8.60;99.90
13598;DHT22;38563;54.258;12.574;2022-12-18T06:49:30;-8.60;99.90
13598;DHT22;38563;54.258;12.574;2022-12-18T06:51:57;-8.50;99.90
13598;DHT22;38563;54.258;12.574;2022-12-18T06:54:24;-8.60;99.90
13598;DHT22;38563;54.258;12.574;2022-12-18T06:56:50;-8.60;99.90
13598;DHT22;38563;54.258;12.574;2022-12-18T06:59:17;-8.60;99.90
13598;DHT22;38563;54.258;12.574;2022-12-18T07:01:44;-8.60;99.90
13598;DHT22;38563;54.258;12.574;2022-12-18T07:04:12;-8.60;99.90
13598;DHT22;38563;54.258;12.574;2022-12-18T07:06:38;-8.70;99.90
13598;DHT22;38563;54.258;12.574;2022-12-18T07:09:05;-8.60;99.90
13598;DHT22;38563;54.258;12.574;2022-12-18T07:11:32;-8.70;99.90
13598;DHT22;38563;54.258;12.574;2022-12-18T07:13:59;-8.70;99.90
13598;DHT22;38563;54.258;12.574;2022-12-18T07:16:26;-8.60;99.90
13598;DHT22;38563;54.258;12.574;2022-12-18T07:18:55;-8.60;99.90
13598;DHT22;38563;54.258;12.574;2022-12-18T07:21:24;-8.50;99.90
13598;DHT22;38563;54.258;12.574;2022-12-18T07:23:51;-8.50;99.90
13598;DHT22;38563;54.258;12.574;2022-12-18T07:26:19;-8.40;99.90
13598;DHT22;38563;54.258;12.574;2022-12-18T07:28:46;-8.40;99.90
13598;DHT22;38563;54.258;12.574;2022-12-18T07:31:15;-8.40;99.90
13598;DHT22;38563;54.258;12.574;2022-12-18T07:33:42;-8.30;99.90
13598;DHT22;38563;54.258;12.574;2022-12-18T07:36:10;-8.30;99.90
13598;DHT22;38563;54.258;12.574;2022-12-18T07:38:38;-8.30;99.90
13598;DHT22;38563;54.258;12.574;2022-12-18T07:41:07;-8.30;99.90
13598;DHT22;38563;54.258;12.574;2022-12-18T07:43:34;-8.20;99.90
13598;DHT22;38563;54.258;12.574;2022-12-18T07:46:02;-8.20;99.90
13598;DHT22;38563;54.258;12.574;2022-12-18T07:48:29;-8.20;99.90
13598;DHT22;38563;54.258;12.574;2022-12-18T07:50:58;-8.20;99.90
13598;DHT22;38563;54.258;12.574;2022-12-18T07:53:24;-8.10;99.90
13598;DHT22;38563;54.258;12.574;2022-12-18T07:55:56;-8.10;99.90
13598;DHT22;38563;54.258;12.574;2022-12-18T07:58:23;-8.10;99.90
13598;DHT22;38563;54.258;12.574;2022-12-18T08:00:50;-8.10;99.90
13598;DHT22;38563;54.258;12.574;2022-12-18T08:03:17;-8.10;99.90
13598;DHT22;38563;54.258;12.574;2022-12-18T08:05:44;-8.10;99.90
13598;DHT22;38563;54.258;12.574;2022-12-18T08:08:11;-8.10;99.90
13598;DHT22;38563;54.258;12.574;2022-12-18T08:10:38;-8.10;99.90
13598;DHT22;38563;54.258;12.574;2022-12-18T08:13:06;-8.10;99.90
13598;DHT22;38563;54.258;12.574;2022-12-18T08:15:32;-8.10;99.90
13598;DHT22;38563;54.258;12.574;2022-12-18T08:17:59;-8.10;99.90
13598;DHT22;38563;54.258;12.574;2022-12-18T08:20:26;-8.10;99.90
13598;DHT22;38563;54.258;12.574;2022-12-18T08:22:52;-8.10;99.90
13598;DHT22;38563;54.258;12.574;2022-12-18T08:25:19;-8.00;99.90
13598;DHT22;38563;54.258;12.574;2022-12-18T08:27:46;-8.00;99.90
13598;DHT22;38563;54.258;12.574;2022-12-18T08:30:14;-8.00;99.90
13598;DHT22;38563;54.258;12.574;2022-12-18T08:32:41;-8.00;99.90
13598;DHT22;38563;54.258;12.574;2022-12-18T08:35:08;-8.00;99.90
13598;DHT22;38563;54.258;12.574;2022-12-18T08:37:37;-7.90;99.90
13598;DHT22;38563;54.258;12.574;2022-12-18T08:40:05;-7.90;99.90
13598;DHT22;38563;54.258;12.574;2022-12-18T08:42:35;-7.80;99.90
13598;DHT22;38563;54.258;12.574;2022-12-18T08:45:20;-7.80;99.90
13598;DHT22;38563;54.258;12.574;2022-12-18T08:47:47;-7.80;99.90
13598;DHT22;38563;54.258;12.574;2022-12-18T08:50:13;-7.70;99.90
13598;DHT22;38563;54.258;12.574;2022-12-18T08:52:40;-7.60;99.90
13598;DHT22;38563;54.258;12.574;2022-12-18T08:55:08;-7.60;99.90
13598;DHT22;38563;54.258;12.574;2022-12-18T08:57:35;-7.60;99.90
13598;DHT22;38563;54.258;12.574;2022-12-18T09:00:02;-7.60;99.90
13598;DHT22;38563;54.258;12.574;2022-12-18T09:02:30;-7.50;99.90
13598;DHT22;38563;54.258;12.574;2022-12-18T09:04:56;-7.50;99.90
13598;DHT22;38563;54.258;12.574;2022-12-18T09:07:23;-7.40;99.90
13598;DHT22;38563;54.258;12.574;2022-12-18T09:09:50;-7.50;99.90
13598;DHT22;38563;54.258;12.574;2022-12-18T09:12:17;-7.50;99.90
13598;DHT22;38563;54.258;12.574;2022-12-18T09:14:43;-7.40;99.90
13598;DHT22;38563;54.258;12.574;2022-12-18T09:17:10;-7.40;99.90
13598;DHT22;38563;54.258;12.574;2022-12-18T09:19:38;-7.50;99.90
13598;DHT22;38563;54.258;12.574;2022-12-18T09:22:05;-7.40;99.90
13598;DHT22;38563;54.258;12.574;2022-12-18T09:24:32;-7.40;99.90
13598;DHT22;38563;54.258;12.574;2022-12-18T09:26:59;-7.40;99.90
13598;DHT22;38563;54.258;12.574;2022-12-18T09:29:25;-7.30;99.90
13598;DHT22;38563;54.258;12.574;2022-12-18T09:31:52;-7.30;99.90
13598;DHT22;38563;54.258;12.574;2022-12-18T09:34:19;-7.20;99.90
13598;DHT22;38563;54.258;12.574;2022-12-18T09:36:48;-7.20;99.90
13598;DHT22;38563;54.258;12.574;2022-12-18T09:39:15;-7.20;99.90
13598;DHT22;38563;54.258;12.574;2022-12-18T09:41:46;-7.20;99.90
13598;DHT22;38563;54.258;12.574;2022-12-18T09:44:25;-7.10;99.90
13598;DHT22;38563;54.258;12.574;2022-12-18T09:47:03;-7.10;99.90
13598;DHT22;38563;54.258;12.574;2022-12-18T09:49:33;-7.10;99.90
13598;DHT22;38563;54.258;12.574;2022-12-18T09:52:08;-7.00;99.90
13598;DHT22;38563;54.258;12.574;2022-12-18T09:54:38;-6.90;99.90
13598;DHT22;38563;54.258;12.574;2022-12-18T09:57:05;-6.80;99.90
13598;DHT22;38563;54.258;12.574;2022-12-18T09:59:36;-6.70;99.90
13598;DHT22;38563;54.258;12.574;2022-12-18T10:02:14;-6.70;99.90
13598;DHT22;38563;54.258;12.574;2022-12-18T10:04:41;-6.60;99.90
13598;DHT22;38563;54.258;12.574;2022-12-18T10:07:13;-6.60;99.90
13598;DHT22;38563;54.258;12.574;2022-12-18T10:09:52;-6.50;99.90
13598;DHT22;38563;54.258;12.574;2022-12-18T10:12:26;-6.50;99.90
13598;DHT22;38563;54.258;12.574;2022-12-18T10:14:58;-6.40;99.90
13598;DHT22;38563;54.258;12.574;2022-12-18T10:17:35;-6.50;99.90
13598;DHT22;38563;54.258;12.574;2022-12-18T10:20:13;-6.30;99.90
13598;DHT22;38563;54.258;12.574;2022-12-18T10:22:50;-6.20;99.90
13598;DHT22;38563;54.258;12.574;2022-12-18T10:25:22;-6.20;99.90
13598;DHT22;38563;54.258;12.574;2022-12-18T10:27:53;-6.10;99.90
13598;DHT22;38563;54.258;12.574;2022-12-18T10:30:23;-6.10;99.90
13598;DHT22;38563;54.258;12.574;2022-12-18T10:32:50;-6.00;99.90
13598;DHT22;38563;54.258;12.574;2022-12-18T10:35:19;-6.00;99.90
13598;DHT22;38563;54.258;12.574;2022-12-18T10:38:19;-5.90;99.90
13598;DHT22;38563;54.258;12.574;2022-12-18T10:40:52;-5.80;99.90
13598;DHT22;38563;54.258;12.574;2022-12-18T10:43:24;-5.80;99.90
13598;DHT22;38563;54.258;12.574;2022-12-18T10:46:00;-5.80;99.90
13598;DHT22;38563;54.258;12.574;2022-12-18T10:48:28;-5.70;99.90
13598;DHT22;38563;54.258;12.574;2022-12-18T10:50:56;-5.70;99.90
13598;DHT22;38563;54.258;12.574;2022-12-18T10:53:28;-5.70;99.90
13598;DHT22;38563;54.258;12.574;2022-12-18T10:55:57;-5.60;99.90
13598;DHT22;38563;54.258;12.574;2022-12-18T10:58:27;-5.60;99.90
13598;DHT22;38563;54.258;12.574;2022-12-18T11:01:07;-5.70;99.90
13598;DHT22;38563;54.258;12.574;2022-12-18T11:03:35;-5.70;99.90
13598;DHT22;38563;54.258;12.574;2022-12-18T11:06:05;-5.70;99.90
13598;DHT22;38563;54.258;12.574;2022-12-18T11:08:33;-5.60;99.90
13598;DHT22;38563;54.258;12.574;2022-12-18T11:11:00;-5.60;99.90
13598;DHT22;38563;54.258;12.574;2022-12-18T11:13:29;-5.50;99.90
13598;DHT22;38563;54.258;12.574;2022-12-18T11:15:57;-5.50;99.90
13598;DHT22;38563;54.258;12.574;2022-12-18T11:18:26;-5.40;99.90
13598;DHT22;38563;54.258;12.574;2022-12-18T11:20:56;-5.40;99.90
13598;DHT22;38563;54.258;12.574;2022-12-18T11:23:23;-5.30;99.90
13598;DHT22;38563;54.258;12.574;2022-12-18T11:25:57;-5.30;99.90
13598;DHT22;38563;54.258;12.574;2022-12-18T11:28:38;-5.30;99.90
13598;DHT22;38563;54.258;12.574;2022-12-18T11:31:21;-5.20;99.90
13598;DHT22;38563;54.258;12.574;2022-12-18T11:34:03;-5.10;99.90
13598;DHT22;38563;54.258;12.574;2022-12-18T11:36:36;-5.00;99.90
13598;DHT22;38563;54.258;12.574;2022-12-18T11:39:12;-4.90;99.90
13598;DHT22;38563;54.258;12.574;2022-12-18T11:41:48;-5.00;99.90
13598;DHT22;38563;54.258;12.574;2022-12-18T11:44:41;-5.00;99.90
13598;DHT22;38563;54.258;12.574;2022-12-18T11:47:15;-5.00;99.90
13598;DHT22;38563;54.258;12.574;2022-12-18T11:49:43;-5.00;99.90
13598;DHT22;38563;54.258;12.574;2022-12-18T11:52:15;-5.00;99.90
13598;DHT22;38563;54.258;12.574;2022-12-18T11:54:42;-5.10;99.90
13598;DHT22;38563;54.258;12.574;2022-12-18T11:57:17;-5.10;99.90
13598;DHT22;38563;54.258;12.574;2022-12-18T11:59:51;-5.10;99.90
13598;DHT22;38563;54.258;12.574;2022-12-18T12:02:54;-5.10;99.90
13598;DHT22;38563;54.258;12.574;2022-12-18T12:05:42;-5.10;99.90
13598;DHT22;38563;54.258;12.574;2022-12-18T12:08:17;-5.10;99.90
13598;DHT22;38563;54.258;12.574;2022-12-18T12:10:53;-5.10;99.90
13598;DHT22;38563;54.258;12.574;2022-12-18T12:13:33;-5.10;99.90
13598;DHT22;38563;54.258;12.574;2022-12-18T12:16:10;-5.00;99.90
13598;DHT22;38563;54.258;12.574;2022-12-18T12:18:50;-4.90;99.90
13598;DHT22;38563;54.258;12.574;2022-12-18T12:21:25;-4.80;99.90
13598;DHT22;38563;54.258;12.574;2022-12-18T12:24:02;-4.80;99.90
13598;DHT22;38563;54.258;12.574;2022-12-18T12:26:35;-4.70;99.90
13598;DHT22;38563;54.258;12.574;2022-12-18T12:29:18;-4.70;99.90
13598;DHT22;38563;54.258;12.574;2022-12-18T12:31:59;-4.70;99.90
13598;DHT22;38563;54.258;12.574;2022-12-18T12:34:33;-4.70;99.90
13598;DHT22;38563;54.258;12.574;2022-12-18T12:37:19;-4.70;99.90
13598;DHT22;38563;54.258;12.574;2022-12-18T12:39:51;-4.70;99.90
13598;DHT22;38563;54.258;12.574;2022-12-18T12:42:26;-4.70;99.90
13598;DHT22;38563;54.258;12.574;2022-12-18T12:45:18;-4.70;99.90
13598;DHT22;38563;54.258;12.574;2022-12-18T12:47:49;-4.70;99.90
13598;DHT22;38563;54.258;12.574;2022-12-18T12:50:19;-4.70;99.90
13598;DHT22;38563;54.258;12.574;2022-12-18T12:52:49;-4.70;99.90
13598;DHT22;38563;54.258;12.574;2022-12-18T12:55:19;-4.60;99.90
13598;DHT22;38563;54.258;12.574;2022-12-18T12:57:54;-4.60;99.90
13598;DHT22;38563;54.258;12.574;2022-12-18T13:00:25;-4.50;99.90
13598;DHT22;38563;54.258;12.574;2022-12-18T13:02:59;-4.50;99.90
13598;DHT22;38563;54.258;12.574;2022-12-18T13:05:33;-4.40;99.90
13598;DHT22;38563;54.258;12.574;2022-12-18T13:08:04;-4.40;99.90
13598;DHT22;38563;54.258;12.574;2022-12-18T13:10:33;-4.50;99.90
13598;DHT22;38563;54.258;12.574;2022-12-18T13:13:02;-4.60;99.90
13598;DHT22;38563;54.258;12.574;2022-12-18T13:15:49;-4.70;99.90
13598;DHT22;38563;54.258;12.574;2022-12-18T13:18:29;-4.70;99.90
13598;DHT22;38563;54.258;12.574;2022-12-18T13:21:04;-4.90;99.90
13598;DHT22;38563;54.258;12.574;2022-12-18T13:23:34;-5.00;99.90
13598;DHT22;38563;54.258;12.574;2022-12-18T13:26:33;-5.10;99.90
13598;DHT22;38563;54.258;12.574;2022-12-18T13:29:00;-5.10;99.90
13598;DHT22;38563;54.258;12.574;2022-12-18T13:31:59;-5.10;99.90
13598;DHT22;38563;54.258;12.574;2022-12-18T13:34:28;-5.20;99.90
13598;DHT22;38563;54.258;12.574;2022-12-18T13:36:56;-5.20;99.90
13598;DHT22;38563;54.258;12.574;2022-12-18T13:39:34;-5.30;99.90
13598;DHT22;38563;54.258;12.574;2022-12-18T13:42:36;-5.40;99.90
13598;DHT22;38563;54.258;12.574;2022-12-18T13:45:42;-5.40;99.90
13598;DHT22;38563;54.258;12.574;2022-12-18T13:48:19;-5.40;99.90
13598;DHT22;38563;54.258;12.574;2022-12-18T13:50:53;-5.50;99.90
13598;DHT22;38563;54.258;12.574;2022-12-18T13:53:24;-5.50;99.90
13598;DHT22;38563;54.258;12.574;2022-12-18T13:55:51;-5.50;99.90
13598;DHT22;38563;54.258;12.574;2022-12-18T13:58:18;-5.50;99.90
13598;DHT22;38563;54.258;12.574;2022-12-18T14:00:44;-5.50;99.90
13598;DHT22;38563;54.258;12.574;2022-12-18T14:03:24;-5.50;99.90
13598;DHT22;38563;54.258;12.574;2022-12-18T14:05:58;-5.50;99.90
13598;DHT22;38563;54.258;12.574;2022-12-18T14:08:30;-5.50;99.90
13598;DHT22;38563;54.258;12.574;2022-12-18T14:10:58;-5.60;99.90
13598;DHT22;38563;54.258;12.574;2022-12-18T14:13:29;-5.60;99.90
13598;DHT22;38563;54.258;12.574;2022-12-18T14:15:57;-5.60;99.90
13598;DHT22;38563;54.258;12.574;2022-12-18T14:18:31;-5.60;99.90
13598;DHT22;38563;54.258;12.574;2022-12-18T14:21:02;-5.60;99.90
13598;DHT22;38563;54.258;12.574;2022-12-18T14:23:32;-5.60;99.90
13598;DHT22;38563;54.258;12.574;2022-12-18T14:25:59;-5.60;99.90
13598;DHT22;38563;54.258;12.574;2022-12-18T14:28:26;-5.60;99.90
13598;DHT22;38563;54.258;12.574;2022-12-18T14:30:53;-5.70;99.90
13598;DHT22;38563;54.258;12.574;2022-12-18T14:33:22;-5.70;99.90
13598;DHT22;38563;54.258;12.574;2022-12-18T14:35:55;-5.80;99.90
13598;DHT22;38563;54.258;12.574;2022-12-18T14:38:26;-5.80;99.90
13598;DHT22;38563;54.258;12.574;2022-12-18T14:40:55;-5.90;99.90
13598;DHT22;38563;54.258;12.574;2022-12-18T14:43:27;-5.90;99.90
13598;DHT22;38563;54.258;12.574;2022-12-18T14:45:54;-5.90;99.90
13598;DHT22;38563;54.258;12.574;2022-12-18T14:48:24;-6.00;99.90
13598;DHT22;38563;54.258;12.574;2022-12-18T14:50:58;-6.10;99.90
13598;DHT22;38563;54.258;12.574;2022-12-18T14:53:35;-6.10;99.90
13598;DHT22;38563;54.258;12.574;2022-12-18T14:56:04;-6.20;99.90
13598;DHT22;38563;54.258;12.574;2022-12-18T14:58:38;-6.20;99.90
13598;DHT22;38563;54.258;12.574;2022-12-18T15:01:06;-6.30;99.90
13598;DHT22;38563;54.258;12.574;2022-12-18T15:03:33;-6.30;99.90
13598;DHT22;38563;54.258;12.574;2022-12-18T15:08:53;-6.30;99.90
13598;DHT22;38563;54.258;12.574;2022-12-18T15:11:33;-6.30;99.90
13598;DHT22;38563;54.258;12.574;2022-12-18T15:14:31;-6.30;99.90
13598;DHT22;38563;54.258;12.574;2022-12-18T15:17:01;-6.30;99.90
13598;DHT22;38563;54.258;12.574;2022-12-18T15:19:35;-6.30;99.90
13598;DHT22;38563;54.258;12.574;2022-12-18T15:22:04;-6.40;99.90
13598;DHT22;38563;54.258;12.574;2022-12-18T15:24:32;-6.40;99.90
13598;DHT22;38563;54.258;12.574;2022-12-18T15:27:00;-6.30;99.90
13598;DHT22;38563;54.258;12.574;2022-12-18T15:29:27;-6.30;99.90
13598;DHT22;38563;54.258;12.574;2022-12-18T15:32:02;-6.30;99.90
13598;DHT22;38563;54.258;12.574;2022-12-18T15:34:30;-6.30;99.90
13598;DHT22;38563;54.258;12.574;2022-12-18T15:36:57;-6.30;99.90
13598;DHT22;38563;54.258;12.574;2022-12-18T15:39:24;-6.30;99.90